Time;durP1;ratioP1;P1;durP2;ratioP2;P2;SDS_P1;SDS_P2;PMS_P1;PMS_P2;Temp;Humidity;BMP_temperature;BMP_pressure;BME280_temperature;BME280_humidity;BME280_pressure;Samples;Min_cycle;Max_cycle;Signal;HPM_P1;HPM_P2
2022/07/02 00:02:19;;;;;;;7.10;6.00;;;21.70;99.90;;;;;;5015924;28;20268;-77
2022/07/02 00:05:08;;;;;;;7.55;5.90;;;21.90;99.90;;;;;;5011631;28;20428;-77
2022/07/02 00:07:57;;;;;;;8.32;6.30;;;22.00;99.90;;;;;;5010961;28;20241;-77
2022/07/02 00:10:48;;;;;;;11.57;6.50;;;22.10;99.90;;;;;;5005554;28;20218;-77
2022/07/02 00:13:36;;;;;;;6.53;5.82;;;22.00;99.90;;;;;;5006091;28;20241;-77
2022/07/02 00:16:25;;;;;;;7.35;5.60;;;22.00;99.90;;;;;;5009647;28;20255;-76
2022/07/02 00:19:15;;;;;;;9.90;5.43;;;21.80;99.90;;;;;;5001841;28;20246;-75
2022/07/02 00:22:05;;;;;;;9.30;6.10;;;21.60;99.90;;;;;;5014702;28;20229;-76
2022/07/02 00:24:53;;;;;;;8.15;6.03;;;21.70;99.90;;;;;;5016461;28;20217;-76
2022/07/02 00:27:43;;;;;;;9.80;6.28;;;21.80;99.90;;;;;;5011866;28;20228;-75
2022/07/02 00:30:33;;;;;;;8.10;5.65;;;21.90;99.90;;;;;;5003390;28;20721;-76
2022/07/02 00:33:28;;;;;;;9.52;6.15;;;21.80;99.90;;;;;;5014875;28;20240;-75
2022/07/02 00:36:22;;;;;;;8.57;5.90;;;21.90;99.90;;;;;;5016867;28;20229;-78
2022/07/02 00:39:11;;;;;;;9.60;5.93;;;22.00;99.90;;;;;;5016029;28;20218;-75
2022/07/02 00:42:00;;;;;;;13.18;7.15;;;21.90;99.90;;;;;;5017312;28;20232;-75
2022/07/02 00:44:51;;;;;;;11.90;7.20;;;21.90;99.90;;;;;;5016458;28;20225;-76
2022/07/02 00:47:42;;;;;;;8.57;7.13;;;21.80;99.90;;;;;;5016283;28;20229;-75
2022/07/02 00:50:30;;;;;;;11.63;7.93;;;21.70;99.90;;;;;;5003018;28;20245;-76
2022/07/02 00:53:23;;;;;;;13.57;8.98;;;21.80;99.90;;;;;;5019529;28;20225;-76
2022/07/02 00:56:12;;;;;;;10.77;8.52;;;21.80;99.90;;;;;;5017442;28;20730;-75
2022/07/02 00:59:03;;;;;;;12.90;9.10;;;21.70;99.90;;;;;;5021781;28;20225;-74
2022/07/02 01:01:57;;;;;;;11.20;9.13;;;21.80;99.90;;;;;;5015089;28;20587;-75
2022/07/02 01:04:46;;;;;;;12.30;9.32;;;21.60;99.90;;;;;;5020938;28;20800;-74
2022/07/02 01:07:36;;;;;;;11.60;9.05;;;21.60;99.90;;;;;;5021375;28;20244;-75
2022/07/02 01:10:24;;;;;;;12.27;10.18;;;21.60;99.90;;;;;;5019829;28;20245;-74
2022/07/02 01:13:15;;;;;;;12.48;9.82;;;21.80;99.90;;;;;;5020824;28;20907;-74
2022/07/02 01:16:04;;;;;;;19.77;11.20;;;21.80;99.90;;;;;;5024153;28;20679;-74
2022/07/02 01:18:57;;;;;;;13.23;11.32;;;21.90;99.90;;;;;;5020454;28;20229;-75
2022/07/02 01:22:16;;;;;;;16.73;11.23;;;22.00;99.90;;;;;;5006068;28;20294;-76
2022/07/02 01:25:06;;;;;;;16.30;11.15;;;21.80;99.90;;;;;;5016219;28;20224;-75
2022/07/02 01:27:55;;;;;;;13.48;11.50;;;21.70;99.90;;;;;;5018303;28;20229;-74
2022/07/02 01:30:44;;;;;;;13.95;10.75;;;21.70;99.90;;;;;;5018356;28;21038;-75
2022/07/02 01:33:32;;;;;;;14.30;11.30;;;21.70;99.90;;;;;;5017023;28;20219;-75
2022/07/02 01:36:21;;;;;;;13.05;11.43;;;21.70;99.90;;;;;;5015644;28;20330;-75
2022/07/02 01:39:11;;;;;;;16.30;11.68;;;21.80;99.90;;;;;;5014904;28;20238;-75
2022/07/02 01:41:59;;;;;;;13.85;11.55;;;21.80;99.90;;;;;;5019055;28;20277;-75
2022/07/02 01:44:48;;;;;;;13.40;11.98;;;21.80;99.90;;;;;;5017227;28;20218;-75
2022/07/02 01:47:37;;;;;;;15.80;12.48;;;21.80;99.90;;;;;;5019246;28;20387;-74
2022/07/02 01:50:25;;;;;;;13.80;12.15;;;21.90;99.90;;;;;;5018254;28;20325;-74
2022/07/02 01:53:17;;;;;;;18.08;13.40;;;22.00;99.90;;;;;;5001992;28;20225;-75
2022/07/02 01:56:07;;;;;;;18.10;12.50;;;22.10;99.90;;;;;;5001092;28;20644;-75
2022/07/02 01:58:56;;;;;;;12.98;11.65;;;22.00;99.90;;;;;;5018839;28;20711;-74
2022/07/02 02:01:45;;;;;;;15.80;11.77;;;21.90;99.90;;;;;;5017670;28;20254;-76
2022/07/02 02:04:34;;;;;;;14.05;11.88;;;21.90;99.90;;;;;;4993204;28;20226;-74
2022/07/02 02:07:23;;;;;;;14.52;12.32;;;21.80;99.90;;;;;;5015294;28;20233;-78
2022/07/02 02:10:11;;;;;;;14.98;12.65;;;21.80;99.90;;;;;;5014793;28;20696;-77
2022/07/02 02:13:01;;;;;;;14.32;12.77;;;22.00;99.90;;;;;;5018125;28;20565;-76
2022/07/02 02:15:50;;;;;;;17.27;13.32;;;22.10;99.90;;;;;;5018591;28;20232;-76
2022/07/02 02:18:38;;;;;;;16.77;13.43;;;22.10;99.90;;;;;;5008360;28;20222;-75
2022/07/02 02:21:29;;;;;;;17.75;14.02;;;21.90;99.90;;;;;;5003253;28;20838;-73
2022/07/02 02:24:18;;;;;;;17.10;13.38;;;22.00;99.90;;;;;;5016381;28;21911;-72
2022/07/02 02:27:07;;;;;;;17.23;14.00;;;21.90;99.90;;;;;;5018609;28;20229;-76
2022/07/02 02:30:01;;;;;;;17.20;13.55;;;21.90;99.90;;;;;;5019652;28;20224;-75
2022/07/02 02:32:50;;;;;;;15.65;13.85;;;22.00;99.90;;;;;;5019200;28;20229;-75
2022/07/02 02:35:38;;;;;;;15.70;12.85;;;21.90;99.90;;;;;;5017162;28;20221;-74
2022/07/02 02:38:26;;;;;;;16.45;13.75;;;21.90;99.90;;;;;;5015231;28;20226;-77
2022/07/02 02:41:15;;;;;;;15.13;12.98;;;21.90;99.90;;;;;;5016750;28;20440;-76
2022/07/02 02:44:04;;;;;;;15.27;13.65;;;22.00;99.90;;;;;;5015694;28;20244;-75
2022/07/02 02:46:54;;;;;;;15.30;13.80;;;22.00;99.90;;;;;;5016711;28;20229;-77
2022/07/02 02:49:43;;;;;;;18.35;13.80;;;22.00;99.90;;;;;;5016752;28;20221;-77
2022/07/02 02:52:34;;;;;;;18.63;14.80;;;22.20;99.90;;;;;;5018735;28;20236;-76
2022/07/02 02:55:23;;;;;;;18.05;14.25;;;22.20;99.90;;;;;;5020614;28;20277;-76
2022/07/02 02:58:11;;;;;;;20.20;13.88;;;22.10;99.90;;;;;;5017599;28;20247;-76
2022/07/02 03:01:00;;;;;;;22.10;13.93;;;22.00;99.90;;;;;;5017073;28;20264;-76
2022/07/02 03:03:51;;;;;;;18.30;14.95;;;22.00;99.90;;;;;;5002446;28;20228;-76
2022/07/02 03:06:43;;;;;;;16.58;14.15;;;22.10;99.90;;;;;;5016886;28;20229;-74
2022/07/02 03:09:31;;;;;;;15.93;14.27;;;22.20;99.90;;;;;;5014551;28;20245;-76
2022/07/02 03:12:20;;;;;;;18.38;15.45;;;22.20;99.90;;;;;;4998711;28;20213;-76
2022/07/02 03:15:09;;;;;;;19.08;14.30;;;22.20;99.90;;;;;;5018290;28;20668;-75
2022/07/02 03:17:57;;;;;;;17.65;14.00;;;22.10;99.90;;;;;;5014421;28;20298;-76
2022/07/02 03:20:47;;;;;;;17.60;15.35;;;22.10;99.90;;;;;;5019632;28;20241;-76
2022/07/02 03:23:36;;;;;;;17.13;14.65;;;22.20;99.90;;;;;;5011225;28;20221;-76
2022/07/02 03:26:25;;;;;;;20.05;14.95;;;22.10;99.90;;;;;;5016059;28;20268;-76
2022/07/02 03:29:13;;;;;;;19.55;16.63;;;22.20;99.90;;;;;;5007783;28;20252;-78
2022/07/02 03:32:02;;;;;;;19.10;15.70;;;22.20;99.90;;;;;;5010242;28;20226;-74
2022/07/02 03:34:50;;;;;;;20.98;18.15;;;22.20;99.90;;;;;;5007057;28;20309;-75
2022/07/02 03:37:43;;;;;;;20.95;16.63;;;22.20;99.90;;;;;;5015734;28;20241;-74
2022/07/02 03:40:32;;;;;;;20.58;17.20;;;22.30;99.90;;;;;;5015450;28;20237;-76
2022/07/02 03:43:21;;;;;;;18.83;16.75;;;22.30;99.90;;;;;;5019660;28;20214;-75
2022/07/02 03:46:09;;;;;;;19.40;17.33;;;22.40;99.90;;;;;;5014498;28;20225;-76
2022/07/02 03:48:58;;;;;;;22.02;17.83;;;22.40;99.90;;;;;;5013942;28;20290;-75
2022/07/02 03:51:46;;;;;;;22.17;15.95;;;22.50;99.90;;;;;;5017584;28;20820;-75
2022/07/02 03:54:36;;;;;;;18.08;16.17;;;22.40;99.90;;;;;;5013485;28;20319;-73
2022/07/02 03:57:25;;;;;;;18.30;14.73;;;22.40;99.90;;;;;;5015472;28;20316;-74
2022/07/02 04:00:14;;;;;;;24.13;15.95;;;22.40;99.90;;;;;;5013597;28;20213;-75
2022/07/02 04:03:03;;;;;;;21.35;16.15;;;22.30;99.90;;;;;;5012429;28;20224;-76
2022/07/02 04:05:52;;;;;;;16.70;14.88;;;22.20;99.90;;;;;;5011648;28;20736;-77
2022/07/02 04:08:40;;;;;;;22.55;13.63;;;22.20;99.90;;;;;;5012596;28;20221;-74
2022/07/02 04:11:30;;;;;;;18.73;14.07;;;22.30;99.90;;;;;;5010138;28;20245;-73
2022/07/02 04:14:19;;;;;;;16.25;12.20;;;22.20;99.90;;;;;;5016616;28;20236;-73
2022/07/02 04:17:11;;;;;;;15.20;11.98;;;22.20;99.90;;;;;;5003030;28;20221;-76
2022/07/02 04:19:59;;;;;;;14.40;11.88;;;22.20;99.90;;;;;;5014177;28;20217;-77
2022/07/02 04:22:48;;;;;;;16.60;13.30;;;22.20;99.90;;;;;;5014292;28;20859;-76
2022/07/02 04:25:37;;;;;;;15.63;13.10;;;22.20;99.90;;;;;;5016908;28;20237;-75
2022/07/02 04:28:27;;;;;;;18.00;13.55;;;22.20;99.90;;;;;;5015034;28;20676;-74
2022/07/02 04:31:15;;;;;;;18.48;12.65;;;22.20;99.90;;;;;;5019338;28;20225;-76
2022/07/02 04:34:04;;;;;;;18.48;12.95;;;22.10;99.90;;;;;;5016584;28;20222;-76
2022/07/02 04:36:53;;;;;;;15.20;11.30;;;22.20;99.90;;;;;;5018415;28;20222;-75
2022/07/02 04:39:42;;;;;;;22.20;12.02;;;22.10;99.90;;;;;;5016837;28;20971;-74
2022/07/02 04:42:31;;;;;;;17.33;11.73;;;22.00;99.90;;;;;;5013237;28;20232;-76
2022/07/02 04:45:21;;;;;;;17.98;12.27;;;22.10;99.90;;;;;;5003258;28;20218;-76
2022/07/02 04:48:09;;;;;;;20.02;12.88;;;22.10;99.90;;;;;;4998228;28;20589;-75
2022/07/02 04:50:58;;;;;;;18.02;12.75;;;22.10;99.90;;;;;;5017893;28;20734;-73
2022/07/02 04:53:46;;;;;;;19.60;11.85;;;22.10;99.90;;;;;;5014379;28;20229;-75
2022/07/02 04:56:35;;;;;;;19.58;11.57;;;22.00;99.90;;;;;;4999617;28;20236;-76
2022/07/02 04:59:23;;;;;;;18.60;11.27;;;22.10;99.90;;;;;;5013807;28;20283;-74
2022/07/02 05:02:18;;;;;;;18.85;10.23;;;22.10;99.90;;;;;;5005388;28;20299;-76
2022/07/02 05:05:08;;;;;;;15.75;9.10;;;22.10;99.90;;;;;;4983639;28;20221;-76
2022/07/02 05:07:57;;;;;;;15.65;9.25;;;22.00;99.90;;;;;;4986489;28;20217;-74
2022/07/02 05:10:45;;;;;;;14.38;8.25;;;22.00;99.90;;;;;;5011602;28;20240;-75
2022/07/02 05:13:34;;;;;;;9.35;7.05;;;22.00;99.90;;;;;;5011726;28;20229;-74
2022/07/02 05:16:23;;;;;;;9.52;7.50;;;21.90;99.90;;;;;;5018251;28;20233;-75
2022/07/02 05:19:13;;;;;;;7.25;6.47;;;21.80;99.90;;;;;;5014048;28;20263;-76
2022/07/02 05:22:01;;;;;;;9.75;6.57;;;21.80;99.90;;;;;;5013937;28;20240;-75
2022/07/02 05:24:50;;;;;;;8.68;7.03;;;21.80;99.90;;;;;;5002510;28;20723;-74
2022/07/02 05:27:38;;;;;;;8.68;7.80;;;21.80;99.90;;;;;;5008838;28;20569;-75
2022/07/02 05:30:27;;;;;;;12.05;7.82;;;22.10;99.90;;;;;;5005959;28;20229;-75
2022/07/02 05:33:15;;;;;;;9.20;7.72;;;22.10;99.90;;;;;;5018540;28;20222;-77
2022/07/02 05:36:06;;;;;;;8.73;7.20;;;22.30;99.90;;;;;;5004406;28;20714;-78
2022/07/02 05:38:55;;;;;;;8.38;7.45;;;22.40;99.90;;;;;;5022048;28;20591;-74
2022/07/02 05:41:43;;;;;;;11.07;7.55;;;22.40;99.90;;;;;;5019847;28;20225;-75
2022/07/02 05:44:31;;;;;;;8.55;7.63;;;22.50;99.90;;;;;;5019129;28;20237;-75
2022/07/02 05:47:20;;;;;;;8.77;7.70;;;22.50;99.90;;;;;;5016047;28;20244;-76
2022/07/02 05:50:10;;;;;;;8.27;7.05;;;22.60;99.90;;;;;;5022400;28;20225;-76
2022/07/02 05:53:04;;;;;;;8.23;7.28;;;22.60;99.90;;;;;;5021063;28;20221;-73
2022/07/02 05:55:52;;;;;;;8.85;7.13;;;22.60;99.90;;;;;;5018841;28;20917;-75
2022/07/02 05:58:41;;;;;;;10.85;7.53;;;22.60;99.90;;;;;;5019144;28;20226;-74
2022/07/02 06:01:29;;;;;;;9.65;7.85;;;22.50;99.90;;;;;;5021108;28;20222;-73
2022/07/02 06:04:18;;;;;;;9.60;7.75;;;22.30;99.90;;;;;;5023921;28;20218;-74
2022/07/02 06:10:18;;;;;;;9.07;8.15;;;22.30;99.90;;;;;;5013428;28;20293;-76
2022/07/02 06:13:06;;;;;;;11.93;9.02;;;22.20;99.90;;;;;;5006318;28;20652;-81
2022/07/02 06:15:56;;;;;;;10.23;7.82;;;22.30;99.90;;;;;;5018919;28;20588;-76
2022/07/02 06:18:45;;;;;;;11.98;8.18;;;22.30;99.90;;;;;;5019268;28;20233;-76
2022/07/02 06:21:33;;;;;;;11.10;9.32;;;22.20;99.90;;;;;;5000359;28;20234;-75
2022/07/02 06:24:22;;;;;;;9.57;8.57;;;22.20;99.90;;;;;;5021029;28;20233;-75
2022/07/02 06:27:13;;;;;;;12.10;8.70;;;22.10;99.90;;;;;;5004037;28;20222;-74
2022/07/02 06:30:02;;;;;;;10.88;9.05;;;22.10;99.90;;;;;;5005581;28;20565;-69
2022/07/02 06:32:51;;;;;;;12.65;9.35;;;22.30;99.90;;;;;;5017795;28;20746;-69
2022/07/02 06:35:40;;;;;;;12.82;9.38;;;22.20;99.90;;;;;;5006601;28;20309;-73
2022/07/02 06:38:29;;;;;;;11.50;9.00;;;22.20;99.90;;;;;;5016138;28;20225;-73
2022/07/02 06:44:22;;;;;;;8.80;7.50;;;22.20;99.90;;;;;;4991927;28;20225;-82
2022/07/02 06:47:11;;;;;;;12.18;8.40;;;22.10;99.90;;;;;;5013770;28;20229;-74
2022/07/02 06:50:00;;;;;;;7.78;6.50;;;22.10;99.90;;;;;;5020709;28;20704;-75
2022/07/02 06:52:49;;;;;;;6.28;5.60;;;22.00;99.90;;;;;;5012779;28;20261;-76
2022/07/02 06:55:37;;;;;;;7.20;5.40;;;21.90;99.90;;;;;;4996498;28;20214;-71
2022/07/02 06:58:26;;;;;;;5.28;3.88;;;22.00;99.90;;;;;;5016977;28;20229;-71
2022/07/02 07:01:16;;;;;;;3.50;3.17;;;21.90;99.90;;;;;;5009463;28;20210;-71
2022/07/02 07:04:05;;;;;;;5.65;3.28;;;21.90;99.90;;;;;;5018078;28;20312;-72
2022/07/02 07:06:54;;;;;;;3.42;3.13;;;22.00;99.90;;;;;;5008373;28;20221;-70
2022/07/02 07:09:42;;;;;;;3.50;3.05;;;21.90;99.90;;;;;;5005919;28;20229;-71
2022/07/02 07:12:35;;;;;;;3.28;3.00;;;21.90;99.90;;;;;;5015954;28;20240;-70
2022/07/02 07:15:23;;;;;;;5.07;3.20;;;21.90;99.90;;;;;;5017706;28;20225;-71
2022/07/02 07:18:17;;;;;;;4.10;3.03;;;21.70;99.90;;;;;;5018462;28;20218;-71
2022/07/02 07:21:05;;;;;;;3.83;3.53;;;21.90;99.90;;;;;;5016996;28;20221;-70
2022/07/02 07:23:54;;;;;;;3.58;3.20;;;21.80;99.90;;;;;;5016336;28;20229;-71
2022/07/02 07:26:42;;;;;;;6.93;3.53;;;21.90;99.90;;;;;;5019602;28;20672;-71
2022/07/02 07:29:31;;;;;;;3.97;3.63;;;21.80;99.90;;;;;;5012421;28;20233;-72
2022/07/02 07:32:19;;;;;;;5.05;4.45;;;21.70;99.90;;;;;;5015112;28;20689;-72
2022/07/02 07:35:10;;;;;;;7.68;5.50;;;21.80;99.90;;;;;;5017802;28;20239;-73
2022/07/02 07:38:00;;;;;;;6.55;5.00;;;21.70;99.90;;;;;;5009398;28;20248;-74
2022/07/02 07:40:48;;;;;;;6.45;5.40;;;21.70;99.90;;;;;;5012394;28;20659;-71
2022/07/02 07:43:36;;;;;;;6.18;5.05;;;21.70;99.90;;;;;;5019708;28;20240;-72
2022/07/02 07:46:29;;;;;;;6.85;5.35;;;21.70;99.90;;;;;;5005916;28;20214;-73
2022/07/02 07:49:18;;;;;;;6.13;4.63;;;21.70;99.90;;;;;;5004664;28;20261;-73
2022/07/02 07:52:08;;;;;;;5.07;4.57;;;21.70;99.90;;;;;;5015429;28;20236;-73
2022/07/02 07:55:00;;;;;;;7.85;4.90;;;21.70;99.90;;;;;;5013786;28;20253;-73
2022/07/02 07:57:53;;;;;;;6.57;5.50;;;21.60;99.90;;;;;;5011480;28;21262;-71
2022/07/02 08:00:42;;;;;;;11.95;5.85;;;21.60;99.90;;;;;;5008569;28;20787;-73
2022/07/02 08:03:30;;;;;;;9.15;6.28;;;21.50;99.90;;;;;;5014411;28;20234;-73
2022/07/02 08:06:19;;;;;;;7.68;6.53;;;21.60;99.90;;;;;;5015938;28;20225;-73
2022/07/02 08:09:09;;;;;;;7.65;6.85;;;21.60;99.90;;;;;;5017272;28;20218;-74
2022/07/02 08:11:57;;;;;;;8.10;6.97;;;21.70;99.90;;;;;;5013926;28;20233;-73
2022/07/02 08:14:46;;;;;;;8.27;7.10;;;21.80;99.90;;;;;;5018740;28;20237;-73
2022/07/02 08:17:35;;;;;;;9.88;7.60;;;21.70;99.90;;;;;;5002275;28;20230;-73
2022/07/02 08:20:24;;;;;;;8.60;7.30;;;21.70;99.90;;;;;;5001273;28;20230;-73
2022/07/02 08:23:12;;;;;;;9.27;7.47;;;21.80;99.90;;;;;;5018577;28;20707;-72
2022/07/02 08:26:02;;;;;;;11.55;7.95;;;21.90;99.90;;;;;;5014489;28;20328;-74
2022/07/02 08:28:51;;;;;;;10.73;8.32;;;22.10;99.90;;;;;;5015167;28;20226;-73
2022/07/02 08:31:40;;;;;;;10.52;7.40;;;22.10;99.90;;;;;;4996894;28;20230;-74
2022/07/02 08:34:28;;;;;;;9.35;8.38;;;22.30;99.90;;;;;;5008942;28;20214;-72
2022/07/02 08:37:17;;;;;;;9.18;8.00;;;22.20;99.90;;;;;;5013528;28;20217;-71
2022/07/02 08:40:07;;;;;;;9.45;7.90;;;22.20;99.90;;;;;;5018410;28;20307;-72
2022/07/02 08:43:01;;;;;;;8.25;7.35;;;22.10;99.90;;;;;;4999373;28;20666;-72
2022/07/02 08:45:52;;;;;;;9.25;7.70;;;22.20;99.90;;;;;;5008887;28;20388;-73
2022/07/02 08:48:42;;;;;;;11.43;7.90;;;22.20;99.90;;;;;;5009679;28;20308;-73
2022/07/02 08:51:32;;;;;;;10.82;7.97;;;22.10;99.90;;;;;;5007828;28;20214;-74
2022/07/02 08:54:23;;;;;;;13.38;8.95;;;22.00;99.90;;;;;;5012965;28;20221;-73
2022/07/02 08:57:17;;;;;;;11.20;8.30;;;22.10;99.90;;;;;;5015882;28;20237;-73
2022/07/02 09:00:08;;;;;;;11.23;8.70;;;22.00;99.90;;;;;;5015646;28;20230;-73
2022/07/02 09:02:58;;;;;;;10.73;8.38;;;22.00;99.90;;;;;;5009601;28;20222;-73
2022/07/02 09:05:50;;;;;;;10.57;8.63;;;21.90;99.90;;;;;;5014151;28;20229;-73
2022/07/02 09:08:41;;;;;;;10.27;8.50;;;21.90;99.90;;;;;;5019058;28;20765;-73
2022/07/02 09:11:30;;;;;;;12.15;8.80;;;21.80;99.90;;;;;;5016147;28;20363;-72
2022/07/02 09:14:19;;;;;;;9.27;8.38;;;21.80;99.90;;;;;;5015508;28;20661;-73
2022/07/02 09:17:11;;;;;;;12.10;8.95;;;21.90;99.90;;;;;;5012190;28;20557;-71
2022/07/02 09:20:00;;;;;;;11.30;8.63;;;21.90;99.90;;;;;;5019272;28;20230;-72
2022/07/02 09:22:50;;;;;;;10.73;8.25;;;21.90;99.90;;;;;;5014853;28;21078;-71
2022/07/02 09:25:41;;;;;;;9.27;8.20;;;21.90;99.90;;;;;;5015594;28;20233;-72
2022/07/02 09:28:30;;;;;;;10.18;9.20;;;21.80;99.90;;;;;;5013228;28;20233;-72
2022/07/02 09:31:18;;;;;;;10.00;8.88;;;21.90;99.90;;;;;;5019517;28;20229;-72
2022/07/02 09:34:08;;;;;;;12.80;8.77;;;21.90;99.90;;;;;;5015481;28;20218;-72
2022/07/02 09:36:57;;;;;;;8.80;7.85;;;21.90;99.90;;;;;;5014902;28;20241;-72
2022/07/02 09:39:52;;;;;;;12.32;7.97;;;21.90;99.90;;;;;;5019972;28;20229;-71
2022/07/02 09:42:46;;;;;;;10.52;8.00;;;22.00;99.90;;;;;;5021639;28;20382;-72
2022/07/02 09:45:35;;;;;;;8.55;7.70;;;22.10;99.90;;;;;;5016863;28;20300;-72
2022/07/02 09:48:24;;;;;;;7.25;6.55;;;22.20;99.90;;;;;;4999506;28;20226;-71
2022/07/02 09:51:18;;;;;;;7.57;6.68;;;22.10;99.90;;;;;;5015127;28;20214;-72
2022/07/02 09:54:09;;;;;;;7.30;6.07;;;22.00;99.90;;;;;;5016643;28;20221;-72
2022/07/02 09:56:59;;;;;;;5.43;4.93;;;22.10;99.90;;;;;;5014966;28;20229;-73
2022/07/02 09:59:47;;;;;;;4.25;3.85;;;22.10;99.90;;;;;;5014832;28;20234;-72
2022/07/02 10:02:37;;;;;;;9.02;3.78;;;22.10;99.90;;;;;;5016542;28;20226;-71
2022/07/02 10:05:27;;;;;;;3.65;3.33;;;22.10;99.90;;;;;;5014380;28;20236;-70
2022/07/02 10:08:18;;;;;;;5.07;3.40;;;22.20;99.90;;;;;;5014179;28;20229;-72
2022/07/02 10:11:08;;;;;;;3.25;3.05;;;22.30;99.90;;;;;;5004394;28;20229;-71
2022/07/02 10:13:57;;;;;;;3.60;3.22;;;22.20;99.90;;;;;;5004250;28;20236;-71
2022/07/02 10:16:46;;;;;;;4.20;3.80;;;22.30;99.90;;;;;;5010600;28;20822;-74
2022/07/02 10:19:35;;;;;;;3.08;2.70;;;22.20;99.90;;;;;;5003479;28;20218;-73
2022/07/02 10:22:24;;;;;;;3.08;2.78;;;22.20;99.90;;;;;;5018227;28;20226;-72
2022/07/02 10:25:15;;;;;;;2.60;2.33;;;22.30;99.90;;;;;;5018733;28;20543;-72
2022/07/02 10:28:04;;;;;;;3.28;2.97;;;22.30;99.90;;;;;;5019158;28;20230;-72
2022/07/02 10:30:55;;;;;;;4.93;2.70;;;22.40;99.90;;;;;;5017711;28;20233;-73
2022/07/02 10:33:51;;;;;;;2.30;2.10;;;22.20;99.90;;;;;;5005666;28;20225;-75
2022/07/02 10:36:40;;;;;;;2.65;2.10;;;22.20;99.90;;;;;;5002987;28;20229;-74
2022/07/02 10:39:38;;;;;;;1.88;1.77;;;22.30;99.90;;;;;;5019486;28;21115;-71
2022/07/02 10:42:39;;;;;;;4.50;2.20;;;22.20;99.90;;;;;;5015121;28;20230;-71
2022/07/02 10:45:28;;;;;;;2.13;1.92;;;22.20;99.90;;;;;;5017227;28;20225;-75
2022/07/02 10:48:17;;;;;;;2.78;2.33;;;22.20;99.90;;;;;;5007764;28;20236;-73
2022/07/02 10:51:07;;;;;;;3.00;2.13;;;22.10;99.90;;;;;;5022117;28;20240;-73
2022/07/02 10:53:59;;;;;;;2.47;2.28;;;22.10;99.90;;;;;;5021636;28;20225;-74
2022/07/02 10:56:51;;;;;;;2.78;2.30;;;22.20;99.90;;;;;;5015141;28;20225;-72
2022/07/02 10:59:44;;;;;;;2.55;2.35;;;22.20;99.90;;;;;;5012334;28;20229;-73
2022/07/02 11:02:35;;;;;;;3.63;2.30;;;22.30;99.90;;;;;;5015709;28;20249;-73
2022/07/02 11:05:24;;;;;;;2.42;2.17;;;22.50;99.90;;;;;;5005088;28;20245;-77
2022/07/02 11:08:47;;;;;;;3.22;2.10;;;22.50;99.90;;;;;;5012026;28;20221;-73
2022/07/02 11:11:57;;;;;;;2.38;2.22;;;22.50;99.90;;;;;;5014489;28;20271;-73
2022/07/02 11:14:56;;;;;;;2.15;1.88;;;22.40;99.90;;;;;;5013432;28;20225;-73
2022/07/02 11:18:07;;;;;;;3.22;2.13;;;22.30;99.90;;;;;;5012325;28;20302;-74
2022/07/02 11:20:56;;;;;;;2.72;2.00;;;22.50;99.90;;;;;;5015229;28;21296;-73
2022/07/02 11:23:45;;;;;;;2.08;1.70;;;22.40;99.90;;;;;;5012683;28;20256;-73
2022/07/02 11:26:34;;;;;;;3.20;2.10;;;22.40;99.90;;;;;;5011809;28;20240;-73
2022/07/02 11:29:23;;;;;;;3.22;1.80;;;22.50;99.90;;;;;;5001070;28;20221;-74
2022/07/02 11:32:14;;;;;;;3.63;2.10;;;22.50;99.90;;;;;;5019546;28;20320;-72
2022/07/02 11:35:03;;;;;;;4.82;2.35;;;22.50;99.90;;;;;;5018976;28;20218;-73
2022/07/02 11:37:56;;;;;;;2.40;2.20;;;22.50;99.90;;;;;;5006231;28;20233;-78
2022/07/02 11:40:45;;;;;;;2.95;2.30;;;22.60;99.90;;;;;;4997365;28;20236;-74
2022/07/02 11:43:33;;;;;;;2.60;2.40;;;22.50;99.90;;;;;;5016757;28;20217;-73
2022/07/02 11:46:24;;;;;;;4.20;2.40;;;22.60;99.90;;;;;;5014790;28;20214;-72
2022/07/02 11:49:18;;;;;;;3.75;2.70;;;22.70;99.90;;;;;;5012728;28;20230;-71
2022/07/02 11:52:11;;;;;;;3.80;2.70;;;22.80;99.90;;;;;;5014074;28;20237;-73
2022/07/02 11:55:02;;;;;;;5.32;2.70;;;23.00;99.90;;;;;;5014815;28;20283;-73
2022/07/02 11:57:53;;;;;;;3.50;2.90;;;23.10;99.90;;;;;;5003554;28;20222;-72
2022/07/02 12:00:45;;;;;;;3.17;2.63;;;23.20;99.90;;;;;;5013649;28;20228;-73
2022/07/02 12:03:35;;;;;;;5.70;2.72;;;23.20;99.90;;;;;;5014011;28;20225;-73
2022/07/02 12:06:27;;;;;;;3.58;2.50;;;23.40;99.90;;;;;;5003036;28;20289;-73
2022/07/02 12:09:18;;;;;;;3.55;2.20;;;23.50;99.90;;;;;;5019315;28;20227;-73
2022/07/02 12:12:07;;;;;;;2.92;2.60;;;23.50;99.90;;;;;;5016678;28;20355;-73
2022/07/02 12:14:57;;;;;;;2.70;2.30;;;23.50;99.90;;;;;;5007134;28;20222;-72
2022/07/02 12:17:49;;;;;;;3.28;2.20;;;23.50;99.90;;;;;;5013733;28;20233;-73
2022/07/02 12:20:38;;;;;;;4.50;2.70;;;23.30;99.90;;;;;;5011847;28;20225;-72
2022/07/02 12:23:29;;;;;;;2.60;2.33;;;23.40;99.90;;;;;;5014869;28;20244;-73
2022/07/02 12:26:23;;;;;;;3.15;2.63;;;23.20;99.90;;;;;;5019005;28;20293;-72
2022/07/02 12:32:19;;;;;;;2.65;2.28;;;23.20;99.90;;;;;;5012739;28;20312;-73
2022/07/02 12:35:11;;;;;;;2.72;2.38;;;23.20;99.90;;;;;;4996598;28;20228;-75
2022/07/02 12:38:00;;;;;;;4.85;2.38;;;23.10;99.90;;;;;;5011067;28;20228;-72
2022/07/02 12:41:00;;;;;;;4.95;2.80;;;23.30;99.90;;;;;;4996266;28;20226;-73
2022/07/02 12:43:55;;;;;;;3.22;2.47;;;23.30;99.90;;;;;;5009499;28;20229;-72
2022/07/02 12:46:45;;;;;;;3.95;2.38;;;23.10;99.90;;;;;;5013528;28;20234;-73
2022/07/02 12:49:33;;;;;;;2.63;2.15;;;23.00;99.90;;;;;;5004968;28;20236;-72
2022/07/02 12:52:24;;;;;;;2.80;2.10;;;22.90;99.90;;;;;;5022826;28;20229;-72
2022/07/02 12:55:25;;;;;;;2.95;2.20;;;22.90;99.90;;;;;;5011439;28;20218;-73
2022/07/02 12:58:16;;;;;;;3.25;2.10;;;22.80;99.90;;;;;;5018023;28;20229;-72
2022/07/02 13:01:05;;;;;;;5.68;2.30;;;22.70;99.90;;;;;;5020604;28;20683;-73
2022/07/02 13:03:53;;;;;;;2.20;1.58;;;22.70;99.90;;;;;;5022774;28;20261;-72
2022/07/02 13:06:42;;;;;;;3.58;1.88;;;22.50;99.90;;;;;;5017001;28;20261;-74
2022/07/02 13:09:31;;;;;;;2.13;1.60;;;22.50;99.90;;;;;;5016359;28;20880;-73
2022/07/02 13:12:19;;;;;;;3.83;1.63;;;22.60;99.90;;;;;;5020124;28;20712;-73
2022/07/02 13:15:10;;;;;;;3.10;1.70;;;22.50;99.90;;;;;;5002995;28;20229;-74
2022/07/02 13:18:00;;;;;;;3.83;1.60;;;22.60;99.90;;;;;;5002625;28;20612;-70
2022/07/02 13:20:49;;;;;;;1.85;1.33;;;22.60;99.90;;;;;;5028643;28;20228;-74
2022/07/02 13:23:37;;;;;;;4.57;1.40;;;22.60;99.90;;;;;;5014751;28;20229;-73
2022/07/02 13:26:29;;;;;;;1.63;1.30;;;22.60;99.90;;;;;;5006011;28;20226;-73
2022/07/02 13:29:17;;;;;;;2.10;1.33;;;22.70;99.90;;;;;;5018660;28;20223;-74
2022/07/02 13:32:09;;;;;;;1.92;1.20;;;22.60;99.90;;;;;;5017602;28;20226;-74
2022/07/02 13:34:57;;;;;;;1.30;1.20;;;22.60;99.90;;;;;;5006292;28;20240;-74
2022/07/02 13:37:46;;;;;;;2.90;1.52;;;22.50;99.90;;;;;;5013739;28;20833;-73
2022/07/02 13:40:35;;;;;;;3.10;1.30;;;22.50;99.90;;;;;;5021456;28;20574;-73
2022/07/02 13:43:23;;;;;;;2.55;1.60;;;22.30;99.90;;;;;;5001969;28;20229;-73
2022/07/02 13:46:12;;;;;;;1.67;1.20;;;22.40;99.90;;;;;;5014477;28;20558;-74
2022/07/02 13:49:02;;;;;;;1.83;1.60;;;22.40;99.90;;;;;;5017620;28;20719;-74
2022/07/02 13:51:51;;;;;;;1.63;1.05;;;22.40;99.90;;;;;;5020204;28;20700;-74
2022/07/02 13:54:39;;;;;;;1.65;1.25;;;22.40;99.90;;;;;;5011556;28;20611;-74
2022/07/02 13:57:32;;;;;;;2.88;1.13;;;22.40;99.90;;;;;;5019808;28;20248;-73
2022/07/02 14:00:21;;;;;;;3.22;1.15;;;22.40;99.90;;;;;;5019133;28;20226;-74
2022/07/02 14:03:09;;;;;;;2.53;1.10;;;22.20;99.90;;;;;;5020733;28;20593;-73
2022/07/02 14:05:59;;;;;;;1.90;1.02;;;22.20;99.90;;;;;;5016732;28;20230;-72
2022/07/02 14:08:47;;;;;;;3.80;1.02;;;22.10;99.90;;;;;;5021159;28;20233;-74
2022/07/02 14:11:36;;;;;;;2.50;1.73;;;22.10;99.90;;;;;;5020683;28;20240;-75
2022/07/02 14:14:25;;;;;;;1.70;1.20;;;22.00;99.90;;;;;;5020105;28;20328;-72
2022/07/02 14:17:14;;;;;;;2.55;1.23;;;22.00;99.90;;;;;;5003036;28;20225;-74
2022/07/02 14:20:02;;;;;;;1.83;1.05;;;21.90;99.90;;;;;;5016968;28;20256;-74
2022/07/02 14:23:12;;;;;;;3.00;1.25;;;21.80;99.90;;;;;;5024530;28;20229;-74
2022/07/02 14:26:01;;;;;;;4.70;1.58;;;21.70;99.90;;;;;;5023860;28;20561;-74
2022/07/02 14:28:50;;;;;;;1.77;1.30;;;21.60;99.90;;;;;;5025154;28;20428;-74
2022/07/02 14:31:38;;;;;;;1.88;1.27;;;21.50;99.90;;;;;;5010041;28;20218;-75
2022/07/02 14:34:27;;;;;;;1.65;1.20;;;21.50;99.90;;;;;;5017690;28;20225;-73
2022/07/02 14:37:16;;;;;;;3.40;1.25;;;21.60;99.90;;;;;;5019627;28;20214;-73
2022/07/02 14:40:07;;;;;;;2.30;1.38;;;21.60;99.90;;;;;;5031035;28;20575;-73
2022/07/02 14:42:56;;;;;;;4.45;1.45;;;21.60;99.90;;;;;;5016274;28;20226;-73
2022/07/02 14:45:45;;;;;;;2.67;1.48;;;21.70;99.90;;;;;;5014413;28;20252;-74
2022/07/02 14:48:33;;;;;;;3.28;1.63;;;21.60;99.90;;;;;;5014894;28;20234;-72